createdAt,value
2019-05-16T00:00:58.790Z,102334.63
2019-05-16T00:03:28.035Z,102335.45
2019-05-16T00:05:58.481Z,102326.27
2019-05-16T00:08:28.555Z,102327.60
2019-05-16T00:10:58.131Z,102322.96
2019-05-16T00:13:28.011Z,102313.97
2019-05-16T00:15:58.784Z,102312.00
2019-05-16T00:18:28.412Z,102302.66
2019-05-16T00:20:58.492Z,102304.00
2019-05-16T00:23:28.932Z,102298.79
2019-05-16T00:25:58.586Z,102296.98
2019-05-16T00:28:28.607Z,102295.01
2019-05-16T00:30:59.107Z,102295.01
2019-05-16T00:33:28.643Z,102299.36
2019-05-16T00:36:05.173Z,102299.84
2019-05-16T00:38:27.811Z,102291.35
2019-05-16T00:40:56.327Z,102284.33
2019-05-16T00:43:25.055Z,102288.34
2019-05-16T00:45:53.806Z,102288.69
2019-05-16T00:48:22.242Z,102283.83
2019-05-16T00:50:50.702Z,102279.64
2019-05-16T00:53:19.302Z,102275.29
2019-05-16T00:55:48.012Z,102280.97
2019-05-16T00:58:18.866Z,102277.31
2019-05-16T01:00:50.239Z,102278.30
2019-05-16T01:03:20.149Z,102272.45
2019-05-16T01:05:49.047Z,102265.44
2019-05-16T01:08:18.826Z,102260.27
2019-05-16T01:10:50.896Z,102255.58
2019-05-16T01:13:18.560Z,102254.37
2019-05-16T01:15:48.636Z,102252.21
2019-05-16T01:18:18.745Z,102250.87
2019-05-16T01:20:48.030Z,102252.56
2019-05-16T01:23:18.320Z,102250.23
2019-05-16T01:25:48.387Z,102252.91
2019-05-16T01:28:17.964Z,102240.55
2019-05-16T01:30:48.880Z,102240.68
2019-05-16T01:33:19.173Z,102243.22
2019-05-16T01:35:47.981Z,102240.90
2019-05-16T01:38:18.132Z,102235.91
2019-05-16T01:40:48.894Z,102235.91
2019-05-16T01:43:17.873Z,102230.58
2019-05-16T01:45:48.706Z,102232.20
2019-05-16T01:48:19.055Z,102229.53
2019-05-16T01:50:48.239Z,102231.22
2019-05-16T01:53:17.878Z,102230.36
2019-05-16T01:55:48.589Z,102220.89
2019-05-16T01:58:19.864Z,102220.89
2019-05-16T02:00:58.116Z,102212.89
2019-05-16T02:03:19.021Z,102203.20
2019-05-16T02:05:48.050Z,102213.88
2019-05-16T02:08:18.260Z,102205.18
2019-05-16T02:10:47.884Z,102203.16
2019-05-16T02:13:18.042Z,102198.30
2019-05-16T02:15:48.905Z,102199.16
2019-05-16T02:18:18.380Z,102197.17
2019-05-16T02:20:47.961Z,102195.03
2019-05-16T02:23:18.791Z,102191.25
2019-05-16T02:25:48.958Z,102188.28
2019-05-16T02:28:19.747Z,102176.63
2019-05-16T02:30:50.949Z,102176.63
2019-05-16T02:33:20.893Z,102177.27
2019-05-16T02:35:54.730Z,102181.61
2019-05-16T02:38:21.037Z,102178.26
2019-05-16T02:40:54.345Z,102175.08
2019-05-16T02:43:21.878Z,102182.26
2019-05-16T02:45:51.921Z,102174.60
2019-05-16T02:48:21.361Z,102168.63
2019-05-16T02:50:51.277Z,102171.29
2019-05-16T02:53:22.481Z,102170.95
2019-05-16T02:55:52.307Z,102167.77
2019-05-16T02:58:23.270Z,102165.27
2019-05-16T03:00:51.840Z,102161.73
2019-05-16T03:03:21.398Z,102161.91
2019-05-16T03:05:50.942Z,102156.52
2019-05-16T03:08:21.400Z,102157.45
2019-05-16T03:10:52.137Z,102157.41
2019-05-16T03:13:22.698Z,102151.03
2019-05-16T03:15:51.953Z,102150.98
2019-05-16T03:18:23.481Z,102148.61
2019-05-16T03:20:54.643Z,102143.73
2019-05-16T03:23:23.171Z,102146.83
2019-05-16T03:25:51.598Z,102138.78
2019-05-16T03:28:22.124Z,102140.75
2019-05-16T03:30:54.752Z,102140.41
2019-05-16T03:33:30.745Z,102132.89
2019-05-16T03:35:54.906Z,102123.08
2019-05-16T03:38:21.623Z,102121.10
2019-05-16T03:40:50.986Z,102117.28
2019-05-16T03:43:21.835Z,102116.17
2019-05-16T03:45:52.071Z,102119.56
2019-05-16T03:48:21.379Z,102115.91
2019-05-16T03:50:50.781Z,102108.89
2019-05-16T03:53:21.256Z,102105.93
2019-05-16T03:55:51.627Z,102103.27
2019-05-16T03:58:22.408Z,102099.73
2019-05-16T04:00:54.300Z,102098.24
2019-05-16T04:03:23.073Z,102101.95
2019-05-16T04:05:52.881Z,102104.31
2019-05-16T04:08:25.136Z,102102.34
2019-05-16T04:10:52.682Z,102096.70
2019-05-16T04:13:21.982Z,102096.58
2019-05-16T04:15:52.300Z,102091.07
2019-05-16T04:18:22.168Z,102086.42
2019-05-16T04:20:52.286Z,102086.77
2019-05-16T04:23:21.608Z,102092.80
2019-05-16T04:25:52.394Z,102082.95
2019-05-16T04:28:21.938Z,102088.15
2019-05-16T04:30:51.839Z,102081.48
2019-05-16T04:33:22.263Z,102083.16
2019-05-16T04:35:52.616Z,102079.84
2019-05-16T04:38:34.116Z,102080.87
2019-05-16T04:40:51.920Z,102079.24
2019-05-16T04:43:22.231Z,102082.47
2019-05-16T04:45:52.260Z,102079.03
2019-05-16T04:48:22.802Z,102082.13
2019-05-16T04:50:52.560Z,102083.19
2019-05-16T04:53:21.752Z,102078.61
2019-05-16T04:55:51.713Z,102075.36
2019-05-16T04:58:23.324Z,102072.41
2019-05-16T05:00:52.048Z,102070.76
2019-05-16T05:03:21.924Z,102066.44
2019-05-16T05:05:51.462Z,102072.67
2019-05-16T05:08:22.957Z,102069.14
2019-05-16T05:10:52.121Z,102065.78
2019-05-16T05:13:22.247Z,102065.11
2019-05-16T05:15:51.478Z,102065.11
2019-05-16T05:18:21.214Z,102061.13
2019-05-16T05:20:52.427Z,102061.67
2019-05-16T05:23:21.258Z,102059.34
2019-05-16T05:25:51.507Z,102060.50
2019-05-16T05:28:21.191Z,102061.52
2019-05-16T05:30:50.842Z,102056.55
2019-05-16T05:33:21.113Z,102048.90
2019-05-16T05:35:50.720Z,102055.23
2019-05-16T05:38:22.020Z,102061.62
2019-05-16T05:40:51.544Z,102058.66
2019-05-16T05:43:21.811Z,102051.33
2019-05-16T05:45:51.511Z,102051.73
2019-05-16T05:48:21.839Z,102054.77
2019-05-16T05:50:53.165Z,102057.28
2019-05-16T05:53:21.622Z,102051.09
2019-05-16T05:55:51.667Z,102053.13
2019-05-16T05:58:21.348Z,102046.13
2019-05-16T06:00:51.908Z,102045.97
2019-05-16T06:03:22.570Z,102045.98
2019-05-16T06:05:50.659Z,102045.48
2019-05-16T06:08:20.552Z,102040.48
2019-05-16T06:10:50.476Z,102039.16
2019-05-16T06:13:20.663Z,102036.48
2019-05-16T06:15:51.112Z,102025.28
2019-05-16T06:18:19.931Z,102029.16
2019-05-16T06:20:51.302Z,102026.13
2019-05-16T06:23:20.603Z,102035.69
2019-05-16T06:25:50.550Z,102036.52
2019-05-16T06:28:20.831Z,102039.69
2019-05-16T06:30:51.691Z,102038.20
2019-05-16T06:33:20.139Z,102030.83
2019-05-16T06:35:51.188Z,102028.99
2019-05-16T06:38:21.131Z,102020.61
2019-05-16T06:40:52.252Z,102021.79
2019-05-16T06:43:20.420Z,102019.77
2019-05-16T06:45:51.261Z,102024.45
2019-05-16T06:48:21.215Z,102016.60
2019-05-16T06:50:51.484Z,102017.42
2019-05-16T06:53:20.934Z,102003.37
2019-05-16T06:55:49.913Z,102005.73
2019-05-16T06:58:21.809Z,102011.75
2019-05-16T07:00:52.334Z,102011.91
2019-05-16T07:03:20.373Z,102006.23
2019-05-16T07:05:50.373Z,102012.10
2019-05-16T07:08:20.401Z,102009.09
2019-05-16T07:10:50.851Z,102007.56
2019-05-16T07:13:19.938Z,102011.41
2019-05-16T07:15:50.237Z,102004.05
2019-05-16T07:18:20.956Z,102002.05
2019-05-16T07:20:51.198Z,101996.88
2019-05-16T07:23:21.054Z,101999.36
2019-05-16T07:25:50.454Z,101987.98
2019-05-16T07:28:20.990Z,101996.35
2019-05-16T07:30:50.199Z,101991.86
2019-05-16T07:33:21.184Z,101982.80
2019-05-16T07:35:51.229Z,101980.60
2019-05-16T07:38:22.426Z,101979.92
2019-05-16T07:40:51.485Z,101977.23
2019-05-16T07:43:20.813Z,101970.18
2019-05-16T07:45:51.237Z,101970.48
2019-05-16T07:48:21.480Z,101966.58
2019-05-16T07:50:50.241Z,101964.54
2019-05-16T07:53:21.354Z,101968.36
2019-05-16T07:55:50.888Z,101965.67
2019-05-16T07:58:21.640Z,101964.01
2019-05-16T08:01:02.114Z,101956.16
2019-05-16T08:03:20.644Z,101952.97
2019-05-16T08:05:51.497Z,101956.67
2019-05-16T08:08:23.183Z,101960.09
2019-05-16T08:10:50.913Z,101952.75
2019-05-16T08:13:21.098Z,101957.96
2019-05-16T08:15:50.514Z,101946.44
2019-05-16T08:18:21.232Z,101944.97
2019-05-16T08:20:52.364Z,101943.82
2019-05-16T08:23:22.202Z,101942.82
2019-05-16T08:25:50.791Z,101944.83
2019-05-16T08:30:52.778Z,101941.48
2019-05-16T08:33:21.809Z,101939.81
2019-05-16T08:35:51.542Z,101927.43
2019-05-16T08:38:21.776Z,101927.77
2019-05-16T08:41:06.027Z,101929.09
2019-05-16T08:43:21.863Z,101919.39
2019-05-16T08:45:51.912Z,101919.39
2019-05-16T08:48:22.901Z,101914.70
2019-05-16T08:50:09.908Z,101946.84
2019-05-16T08:50:54.797Z,101913.64
2019-05-16T08:53:21.796Z,101903.92
2019-05-16T08:55:50.910Z,101900.88
2019-05-16T08:58:22.834Z,101905.05
2019-05-16T09:00:55.336Z,101905.19
2019-05-16T09:03:22.204Z,101905.19
2019-05-16T09:05:53.908Z,101905.72
2019-05-16T09:08:20.537Z,101896.70
2019-05-16T09:11:09.269Z,101890.51
2019-05-16T09:13:21.286Z,101888.20
2019-05-16T09:15:50.110Z,101884.39
2019-05-16T09:18:18.629Z,101883.58
2019-05-16T09:20:49.939Z,101879.91
2019-05-16T09:23:18.103Z,101878.58
2019-05-16T09:25:48.880Z,101869.88
2019-05-16T09:28:17.198Z,101866.20
2019-05-16T09:30:47.065Z,101852.48
2019-05-16T09:33:17.721Z,101850.15
2019-05-16T09:35:47.668Z,101843.13
2019-05-16T09:38:20.269Z,101834.47
2019-05-16T09:40:48.332Z,101828.78
2019-05-16T09:43:21.643Z,101826.25
2019-05-16T09:45:47.773Z,101815.02
2019-05-16T09:48:18.998Z,101824.04
2019-05-16T09:50:47.112Z,101811.31
2019-05-16T09:53:17.153Z,101810.63
2019-05-16T09:55:47.094Z,101810.61
2019-05-16T09:58:18.103Z,101811.73
2019-05-16T10:00:48.716Z,101801.14
2019-05-16T10:03:21.972Z,101797.73
2019-05-16T10:05:47.752Z,101802.33
2019-05-16T10:08:17.390Z,101799.70
2019-05-16T10:10:45.956Z,101797.62
2019-05-16T10:13:14.496Z,101796.42
2019-05-16T10:15:43.348Z,101805.14
2019-05-16T10:18:11.763Z,101793.30
2019-05-16T10:20:40.226Z,101792.48
2019-05-16T10:23:14.873Z,101787.47
2019-05-16T10:25:39.706Z,101787.80
2019-05-16T10:28:08.160Z,101786.76
2019-05-16T10:30:37.622Z,101792.09
2019-05-16T10:33:07.193Z,101784.73
2019-05-16T10:35:37.245Z,101788.76
2019-05-16T10:38:06.331Z,101780.94
2019-05-16T10:40:36.930Z,101773.80
2019-05-16T10:43:07.113Z,101779.34
2019-05-16T10:45:36.934Z,101788.63
2019-05-16T10:48:05.810Z,101789.70
2019-05-16T10:50:36.802Z,101793.30
2019-05-16T10:53:25.760Z,101792.53
2019-05-16T10:55:36.789Z,101797.94
2019-05-16T10:58:07.206Z,101800.68
2019-05-16T11:01:05.037Z,101806.05
2019-05-16T11:03:06.590Z,101806.73
2019-05-16T11:05:37.040Z,101799.23
2019-05-16T11:08:07.888Z,101808.44
2019-05-16T11:10:37.315Z,101802.45
2019-05-16T11:13:08.204Z,101803.41
2019-05-16T11:15:37.397Z,101802.41
2019-05-16T11:18:06.869Z,101794.38
2019-05-16T11:20:37.324Z,101791.70
2019-05-16T11:23:07.886Z,101783.01
2019-05-16T11:25:36.806Z,101761.66
2019-05-16T11:28:07.276Z,101748.28
2019-05-16T11:30:37.576Z,101747.95
2019-05-16T11:33:07.598Z,101746.94
2019-05-16T11:35:38.087Z,101737.91
2019-05-16T11:38:07.761Z,101733.56
2019-05-16T11:40:36.185Z,101734.41
2019-05-16T11:43:12.383Z,101741.26
2019-05-16T11:45:36.778Z,101744.25
2019-05-16T11:48:05.138Z,101735.57
2019-05-16T11:50:33.566Z,101722.89
2019-05-16T11:53:01.986Z,101721.20
2019-05-16T11:55:33.834Z,101720.73
2019-05-16T11:58:00.669Z,101714.73
2019-05-16T12:00:30.516Z,101703.20
2019-05-16T12:02:59.245Z,101711.87
2019-05-16T12:05:27.824Z,101703.66
2019-05-16T12:07:57.275Z,101696.16
2019-05-16T12:10:27.025Z,101709.83
2019-05-16T12:12:56.797Z,101702.74
2019-05-16T12:15:27.404Z,101688.33
2019-05-16T12:18:01.826Z,101688.13
2019-05-16T12:20:28.597Z,101682.28
2019-05-16T12:22:57.089Z,101687.31
2019-05-16T12:25:27.286Z,101685.00
2019-05-16T12:27:56.885Z,101673.16
2019-05-16T12:30:25.396Z,101676.33
2019-05-16T12:32:57.903Z,101666.64
2019-05-16T12:35:24.008Z,101669.31
2019-05-16T12:37:52.492Z,101666.16
2019-05-16T12:40:20.928Z,101657.02
2019-05-16T12:42:49.793Z,101650.68
2019-05-16T12:45:18.850Z,101642.34
2019-05-16T12:47:47.469Z,101653.05
2019-05-16T12:50:18.194Z,101653.08
2019-05-16T12:52:47.397Z,101644.55
2019-05-16T12:55:16.557Z,101634.02
2019-05-16T12:57:48.470Z,101629.53
2019-05-16T13:00:19.062Z,101632.02
2019-05-16T13:02:47.488Z,101623.66
2019-05-16T13:05:17.853Z,101611.81
2019-05-16T13:07:47.618Z,101606.98
2019-05-16T13:10:17.380Z,101598.58
2019-05-16T13:12:45.912Z,101596.39
2019-05-16T13:15:14.758Z,101584.83
2019-05-16T13:17:43.218Z,101577.12
2019-05-16T13:20:12.762Z,101569.75
2019-05-16T13:22:41.195Z,101567.39
2019-05-16T13:25:10.938Z,101556.91
2019-05-16T13:27:39.499Z,101555.27
2019-05-16T13:30:10.175Z,101549.50
2019-05-16T13:32:38.727Z,101547.55
2019-05-16T13:35:07.956Z,101542.45
2019-05-16T13:37:36.354Z,101532.91
2019-05-16T13:40:08.065Z,101523.33
2019-05-16T13:42:37.167Z,101523.95
2019-05-16T13:45:09.621Z,101514.28
2019-05-16T13:47:38.081Z,101500.73
2019-05-16T13:50:12.240Z,101503.80
2019-05-16T13:52:38.103Z,101486.64
2019-05-16T13:55:08.337Z,101477.89
2019-05-16T13:57:37.518Z,101485.70
2019-05-16T14:00:10.429Z,101484.75
2019-05-16T14:02:39.053Z,101478.18
2019-05-16T14:05:09.153Z,101482.02
2019-05-16T14:07:38.191Z,101480.31
2019-05-16T14:10:10.276Z,101478.55
2019-05-16T14:12:39.209Z,101473.92
2019-05-16T14:15:09.734Z,101488.52
2019-05-16T14:17:38.299Z,101483.81
2019-05-16T14:20:14.721Z,101480.31
2019-05-16T14:22:40.053Z,101473.30
2019-05-16T14:25:10.086Z,101463.91
2019-05-16T14:27:38.817Z,101471.45
2019-05-16T14:30:08.703Z,101479.34
2019-05-16T14:32:40.970Z,101476.74
2019-05-16T14:35:08.997Z,101477.33
2019-05-16T14:37:38.245Z,101480.56
2019-05-16T14:40:08.503Z,101472.56
2019-05-16T14:42:38.839Z,101467.64
2019-05-16T14:45:12.869Z,101469.06
2019-05-16T14:47:40.220Z,101466.12
2019-05-16T14:50:13.516Z,101464.83
2019-05-16T14:52:39.296Z,101453.02
2019-05-16T14:55:08.322Z,101453.56
2019-05-16T14:57:37.116Z,101452.11
2019-05-16T15:00:07.555Z,101451.78
2019-05-16T15:02:38.123Z,101445.57
2019-05-16T15:05:09.450Z,101439.13
2019-05-16T15:07:37.890Z,101437.73
2019-05-16T15:10:08.450Z,101430.66
2019-05-16T15:12:37.737Z,101428.94
2019-05-16T15:15:20.140Z,101425.03
2019-05-16T15:17:38.998Z,101419.93
2019-05-16T15:20:08.769Z,101421.53
2019-05-16T15:22:38.290Z,101412.58
2019-05-16T15:25:08.354Z,101414.56
2019-05-16T15:27:37.333Z,101428.94
2019-05-16T15:30:08.554Z,101424.53
2019-05-16T15:32:38.477Z,101423.13
2019-05-16T15:35:09.499Z,101424.73
2019-05-16T15:37:37.925Z,101418.56
2019-05-16T15:40:09.956Z,101414.20
2019-05-16T15:42:37.696Z,101406.82
2019-05-16T15:45:08.861Z,101402.91
2019-05-16T15:47:37.860Z,101402.48
2019-05-16T15:50:11.305Z,101399.44
2019-05-16T15:52:43.465Z,101399.83
2019-05-16T15:55:12.194Z,101400.36
2019-05-16T15:57:40.705Z,101397.85
2019-05-16T16:00:11.097Z,101416.80
2019-05-16T16:02:39.843Z,101411.23
2019-05-16T16:05:09.428Z,101416.16
2019-05-16T16:07:38.324Z,101415.72
2019-05-16T16:10:07.798Z,101409.89
2019-05-16T16:12:37.690Z,101409.95
2019-05-16T16:15:08.064Z,101413.33
2019-05-16T16:17:38.210Z,101412.19
2019-05-16T16:20:10.411Z,101413.16
2019-05-16T16:22:38.436Z,101414.16
2019-05-16T16:25:08.232Z,101417.34
2019-05-16T16:27:37.172Z,101413.42
2019-05-16T16:30:08.875Z,101413.71
2019-05-16T16:32:38.165Z,101408.12
2019-05-16T16:35:08.289Z,101411.38
2019-05-16T16:37:37.869Z,101418.52
2019-05-16T16:40:11.454Z,101421.15
2019-05-16T16:42:37.825Z,101418.09
2019-05-16T16:45:08.231Z,101416.34
2019-05-16T16:47:37.842Z,101416.90
2019-05-16T16:50:08.312Z,101419.48
2019-05-16T16:52:38.154Z,101420.03
2019-05-16T16:55:08.794Z,101421.89
2019-05-16T16:57:38.800Z,101421.76
2019-05-16T17:00:10.317Z,101421.44
2019-05-16T17:02:40.041Z,101416.77
2019-05-16T17:05:12.261Z,101414.45
2019-05-16T17:07:41.179Z,101411.97
2019-05-16T17:10:12.200Z,101415.45
2019-05-16T17:12:42.450Z,101411.77
2019-05-16T17:15:12.504Z,101412.09
2019-05-16T17:17:41.133Z,101406.42
2019-05-16T17:20:10.195Z,101411.12
2019-05-16T17:22:38.637Z,101407.79
2019-05-16T17:25:09.146Z,101411.83
2019-05-16T17:27:37.956Z,101403.80
2019-05-16T17:30:16.843Z,101407.49
2019-05-16T17:32:45.475Z,101394.12
2019-05-16T17:35:18.632Z,101398.81
2019-05-16T17:37:48.676Z,101400.84
2019-05-16T17:40:19.876Z,101401.52
2019-05-16T17:42:48.603Z,101387.20
2019-05-16T17:45:18.680Z,101390.55
2019-05-16T17:47:47.609Z,101385.89
2019-05-16T17:50:19.281Z,101391.72
2019-05-16T17:52:47.968Z,101387.55
2019-05-16T17:55:19.146Z,101388.89
2019-05-16T17:57:50.653Z,101392.25
2019-05-16T18:00:25.193Z,101394.27
2019-05-16T18:02:51.567Z,101394.27
2019-05-16T18:05:20.556Z,101398.77
2019-05-16T18:07:49.300Z,101396.94
2019-05-16T18:10:20.291Z,101402.28
2019-05-16T18:12:50.236Z,101400.63
2019-05-16T18:15:23.316Z,101406.98
2019-05-16T18:17:53.063Z,101405.12
2019-05-16T18:20:22.557Z,101405.64
2019-05-16T18:22:52.695Z,101406.66
2019-05-16T18:25:22.214Z,101403.66
2019-05-16T18:27:50.758Z,101407.33
2019-05-16T18:30:22.313Z,101406.68
2019-05-16T18:32:52.762Z,101408.70
2019-05-16T18:35:21.856Z,101413.39
2019-05-16T18:37:50.695Z,101407.73
2019-05-16T18:40:20.144Z,101412.95
2019-05-16T18:42:57.056Z,101413.11
2019-05-16T18:45:29.237Z,101415.12
2019-05-16T18:47:57.744Z,101419.52
2019-05-16T18:50:26.604Z,101420.52
2019-05-16T18:52:57.102Z,101418.20
2019-05-16T18:55:26.276Z,101420.55
2019-05-16T18:57:57.429Z,101422.89
2019-05-16T19:00:26.781Z,101419.86
2019-05-16T19:02:56.414Z,101418.19
2019-05-16T19:05:26.602Z,101421.88
2019-05-16T19:07:56.372Z,101414.22
2019-05-16T19:10:26.963Z,101420.91
2019-05-16T19:12:56.478Z,101420.92
2019-05-16T19:15:26.692Z,101415.27
2019-05-16T19:17:58.510Z,101420.33
2019-05-16T19:20:26.456Z,101422.69
2019-05-16T19:22:58.895Z,101414.69
2019-05-16T19:25:26.971Z,101420.05
2019-05-16T19:27:57.008Z,101414.23
2019-05-16T19:30:26.427Z,101413.05
2019-05-16T19:32:57.368Z,101417.41
2019-05-16T19:35:27.315Z,101419.08
2019-05-16T19:37:57.000Z,101421.42
2019-05-16T19:40:25.634Z,101420.44
2019-05-16T19:42:56.445Z,101423.77
2019-05-16T19:45:26.412Z,101419.44
2019-05-16T19:47:57.605Z,101413.80
2019-05-16T19:50:26.733Z,101418.48
2019-05-16T19:52:56.726Z,101425.31
2019-05-16T19:55:27.068Z,101414.83
2019-05-16T19:57:57.197Z,101412.83
2019-05-16T20:00:26.608Z,101413.83
2019-05-16T20:02:56.974Z,101417.17
2019-05-16T20:05:26.675Z,101424.19
2019-05-16T20:07:55.313Z,101418.52
2019-05-16T20:10:23.923Z,101419.19
2019-05-16T20:12:52.610Z,101423.87
2019-05-16T20:15:21.155Z,101416.86
2019-05-16T20:17:57.766Z,101415.86
2019-05-16T20:20:20.261Z,101411.19
2019-05-16T20:22:48.861Z,101414.19
2019-05-16T20:25:17.490Z,101420.86
2019-05-16T20:27:46.922Z,101414.84
2019-05-16T20:30:17.020Z,101415.84
2019-05-16T20:32:45.970Z,101416.85
2019-05-16T20:35:17.337Z,101420.20
2019-05-16T20:37:47.311Z,101421.38
2019-05-16T20:40:17.252Z,101409.19
2019-05-16T20:42:47.525Z,101407.20
2019-05-16T20:45:17.015Z,101402.53
2019-05-16T20:47:46.129Z,101403.53
2019-05-16T20:50:16.957Z,101406.53
2019-05-16T20:52:46.591Z,101408.57
2019-05-16T20:55:17.600Z,101405.23
2019-05-16T20:57:48.463Z,101403.23
2019-05-16T21:00:17.695Z,101403.23
2019-05-16T21:02:46.558Z,101402.23
2019-05-16T21:05:17.906Z,101399.56
2019-05-16T21:07:48.847Z,101404.56
2019-05-16T21:10:17.450Z,101398.20
2019-05-16T21:12:46.740Z,101392.37
2019-05-16T21:15:17.115Z,101394.85
2019-05-16T21:17:46.687Z,101388.18
2019-05-16T21:20:17.643Z,101383.84
2019-05-16T21:22:47.157Z,101383.84
2019-05-16T21:25:16.922Z,101382.17
2019-05-16T21:27:46.560Z,101382.52
2019-05-16T21:30:19.009Z,101382.84
2019-05-16T21:32:47.180Z,101371.20
2019-05-16T21:35:15.943Z,101371.20
2019-05-16T21:37:46.648Z,101370.55
2019-05-16T21:40:17.033Z,101368.20
2019-05-16T21:42:45.513Z,101364.53
2019-05-16T21:45:14.883Z,101362.87
2019-05-16T21:47:43.316Z,101363.20
2019-05-16T21:50:12.406Z,101353.52
2019-05-16T21:52:40.925Z,101347.86
2019-05-16T21:55:10.162Z,101346.19
2019-05-16T21:57:38.709Z,101351.53
2019-05-16T22:00:14.395Z,101344.53
2019-05-16T22:02:43.277Z,101344.68
2019-05-16T22:05:12.301Z,101347.02
2019-05-16T22:07:41.247Z,101339.53
2019-05-16T22:10:10.035Z,101335.53
2019-05-16T22:12:38.573Z,101336.19
2019-05-16T22:15:07.261Z,101333.85
2019-05-16T22:17:36.654Z,101330.18
2019-05-16T22:20:07.217Z,101329.17
2019-05-16T22:22:38.196Z,101323.84
2019-05-16T22:25:07.663Z,101323.31
2019-05-16T22:27:38.582Z,101319.50
2019-05-16T22:30:12.573Z,101311.31
2019-05-16T22:32:40.958Z,101309.48
2019-05-16T22:35:09.773Z,101310.30
2019-05-16T22:37:52.019Z,101309.62
2019-05-16T22:40:11.458Z,101305.63
2019-05-16T22:42:39.919Z,101301.81
2019-05-16T22:45:10.892Z,101302.63
2019-05-16T22:47:39.321Z,101297.81
2019-05-16T22:50:09.697Z,101294.11
2019-05-16T22:52:38.252Z,101290.81
2019-05-16T22:55:07.616Z,101295.63
2019-05-16T22:57:36.256Z,101294.48
2019-05-16T23:00:10.983Z,101287.48
2019-05-16T23:02:39.461Z,101287.48
2019-05-16T23:05:08.026Z,101285.81
2019-05-16T23:07:36.946Z,101283.14
2019-05-16T23:10:07.326Z,101280.48
2019-05-16T23:12:37.231Z,101276.48
2019-05-16T23:15:06.980Z,101268.47
2019-05-16T23:17:37.507Z,101270.81
2019-05-16T23:20:06.585Z,101262.47
2019-05-16T23:22:36.741Z,101262.14
2019-05-16T23:25:06.830Z,101254.95
2019-05-16T23:27:36.796Z,101253.80
2019-05-16T23:30:08.381Z,101257.48
2019-05-16T23:32:36.930Z,101255.81
2019-05-16T23:35:07.194Z,101260.82
2019-05-16T23:37:37.024Z,101257.50
2019-05-16T23:40:06.515Z,101258.50
2019-05-16T23:42:36.916Z,101252.83
2019-05-16T23:45:08.793Z,101256.17
2019-05-16T23:47:37.609Z,101248.84
2019-05-16T23:50:07.919Z,101253.19
2019-05-16T23:52:36.903Z,101239.85
2019-05-16T23:55:08.554Z,101235.19
2019-05-16T23:57:37.543Z,101233.20
